Time;durP1;ratioP1;P1;durP2;ratioP2;P2;SDS_P1;SDS_P2;PMS_P1;PMS_P2;Temp;Humidity;BMP_temperature;BMP_pressure;BME280_temperature;BME280_humidity;BME280_pressure;Samples;Min_cycle;Max_cycle;Signal;HPM_P1;HPM_P2
2021/03/12 00:00:26;;;;;;;1.57;1.23;;;7.20;98.20;;;;;;5040816;28;20486;-77
2021/03/12 00:02:52;;;;;;;1.60;1.30;;;7.20;98.20;;;;;;5051878;28;20536;-78
2021/03/12 00:05:19;;;;;;;1.57;1.30;;;7.20;98.20;;;;;;5051712;28;20491;-78
2021/03/12 00:07:52;;;;;;;1.60;1.20;;;7.10;98.20;;;;;;5059819;28;20579;-77
2021/03/12 00:10:21;;;;;;;1.60;1.30;;;7.10;98.20;;;;;;5061361;28;20874;-78
2021/03/12 00:12:47;;;;;;;1.57;1.20;;;7.10;98.20;;;;;;5058897;28;20485;-77
2021/03/12 00:15:15;;;;;;;1.60;1.30;;;7.10;98.20;;;;;;5061645;28;20482;-78
2021/03/12 00:17:43;;;;;;;1.60;1.30;;;7.00;98.20;;;;;;5061979;28;21205;-78
2021/03/12 00:20:13;;;;;;;1.60;1.20;;;7.00;98.20;;;;;;5059145;28;20465;-77
2021/03/12 00:22:40;;;;;;;1.57;1.20;;;7.00;98.20;;;;;;5048489;28;20554;-77
2021/03/12 00:25:12;;;;;;;1.57;1.20;;;7.00;98.20;;;;;;5061965;28;20503;-77
2021/03/12 00:27:39;;;;;;;1.53;1.30;;;7.00;98.20;;;;;;5063420;28;20520;-77
2021/03/12 00:30:07;;;;;;;1.60;1.20;;;6.90;98.20;;;;;;5055561;28;20922;-77
2021/03/12 00:32:34;;;;;;;1.60;1.30;;;6.90;98.20;;;;;;5050019;28;20532;-77
2021/03/12 00:35:01;;;;;;;1.60;1.20;;;6.90;98.20;;;;;;5063396;28;20473;-77
2021/03/12 00:37:28;;;;;;;1.60;1.37;;;6.80;98.20;;;;;;5065683;28;20564;-78
2021/03/12 00:39:54;;;;;;;1.60;1.30;;;6.80;98.20;;;;;;5055942;28;20462;-78
2021/03/12 00:42:21;;;;;;;1.60;1.50;;;6.80;98.20;;;;;;5053104;28;20481;-78
2021/03/12 00:44:47;;;;;;;1.60;1.30;;;6.80;98.20;;;;;;5055627;28;20466;-78
2021/03/12 00:47:13;;;;;;;1.60;1.30;;;6.80;98.20;;;;;;5037182;28;20474;-78
2021/03/12 00:49:40;;;;;;;1.60;1.30;;;6.80;98.20;;;;;;5053258;28;20870;-77
2021/03/12 00:52:07;;;;;;;1.60;1.30;;;6.70;98.20;;;;;;5040400;28;20871;-78
2021/03/12 00:54:33;;;;;;;1.60;1.30;;;6.70;98.20;;;;;;5056644;28;20462;-77
2021/03/12 00:57:00;;;;;;;1.60;1.30;;;6.70;98.20;;;;;;5050981;28;20485;-78
2021/03/12 00:59:26;;;;;;;1.60;1.30;;;6.70;98.20;;;;;;5069557;28;20515;-79
2021/03/12 01:01:52;;;;;;;1.60;1.30;;;6.70;98.20;;;;;;5045183;28;20868;-78
2021/03/12 01:04:19;;;;;;;2.00;1.87;;;6.70;98.20;;;;;;5062581;28;20466;-79
2021/03/12 01:06:45;;;;;;;1.60;1.20;;;6.60;98.20;;;;;;5039847;28;20592;-78
2021/03/12 01:09:12;;;;;;;1.60;1.30;;;6.60;98.20;;;;;;5058181;28;20454;-78
2021/03/12 01:11:38;;;;;;;1.60;1.40;;;6.60;98.20;;;;;;5050619;28;20541;-79
2021/03/12 01:14:05;;;;;;;1.60;1.20;;;6.60;98.20;;;;;;5057176;28;20537;-79
2021/03/12 01:16:31;;;;;;;1.60;1.47;;;6.60;98.20;;;;;;5044893;28;20913;-79
2021/03/12 01:18:57;;;;;;;1.60;1.30;;;6.60;98.20;;;;;;5064546;28;20950;-79
2021/03/12 01:21:24;;;;;;;1.60;1.33;;;6.60;98.20;;;;;;5060034;28;20478;-78
2021/03/12 01:23:50;;;;;;;1.60;1.30;;;6.60;98.20;;;;;;5069350;28;20465;-79
2021/03/12 01:26:17;;;;;;;1.53;1.20;;;6.60;98.20;;;;;;5051398;28;20987;-79
2021/03/12 01:28:44;;;;;;;1.60;1.20;;;6.60;98.20;;;;;;5080382;28;20812;-80
2021/03/12 01:31:10;;;;;;;1.60;1.40;;;6.70;98.20;;;;;;5047539;28;20539;-77
2021/03/12 01:33:36;;;;;;;1.60;1.23;;;6.70;98.20;;;;;;5061425;28;20515;-79
2021/03/12 01:36:03;;;;;;;1.53;1.30;;;6.70;98.20;;;;;;5047424;28;20490;-78
2021/03/12 01:38:29;;;;;;;1.60;1.20;;;6.70;98.20;;;;;;5058914;28;20458;-79
2021/03/12 01:40:55;;;;;;;1.60;1.30;;;6.70;98.20;;;;;;5047176;28;20474;-78
2021/03/12 01:43:23;;;;;;;1.60;1.20;;;6.70;98.20;;;;;;5068657;28;20690;-79
2021/03/12 01:45:51;;;;;;;1.60;1.33;;;6.70;98.20;;;;;;5047138;28;20454;-78
2021/03/12 01:48:20;;;;;;;1.60;1.30;;;6.80;98.20;;;;;;5055807;28;20551;-78
2021/03/12 01:50:49;;;;;;;1.53;1.30;;;6.80;98.20;;;;;;5051966;28;20481;-79
2021/03/12 01:53:16;;;;;;;1.60;1.40;;;6.80;98.20;;;;;;5050817;28;20480;-79
2021/03/12 01:55:43;;;;;;;1.50;1.30;;;6.80;98.20;;;;;;5063925;28;20486;-78
2021/03/12 01:58:12;;;;;;;1.53;1.30;;;6.80;98.20;;;;;;5047489;28;20470;-78
2021/03/12 02:00:40;;;;;;;1.60;1.30;;;6.80;98.20;;;;;;5056093;28;20458;-80
2021/03/12 02:03:09;;;;;;;2.77;2.57;;;6.80;98.20;;;;;;5041129;28;20493;-78
2021/03/12 02:05:36;;;;;;;1.60;1.30;;;6.80;98.20;;;;;;5054988;28;20729;-80
2021/03/12 02:08:03;;;;;;;1.53;1.23;;;6.80;98.20;;;;;;5047641;28;20533;-78
2021/03/12 02:10:29;;;;;;;1.60;1.30;;;6.80;98.20;;;;;;5045266;28;20470;-79
2021/03/12 02:13:04;;;;;;;1.60;1.30;;;6.80;98.20;;;;;;5064183;28;20598;-79
2021/03/12 02:15:37;;;;;;;1.53;1.30;;;6.80;98.20;;;;;;5067992;28;20509;-79
2021/03/12 02:18:10;;;;;;;1.60;1.40;;;6.80;98.20;;;;;;5061010;28;20571;-80
2021/03/12 02:20:46;;;;;;;1.60;1.30;;;6.80;98.20;;;;;;5069325;28;20533;-79
2021/03/12 02:23:23;;;;;;;1.53;1.30;;;6.80;98.20;;;;;;5033628;28;20548;-78
2021/03/12 02:25:57;;;;;;;1.60;1.30;;;6.90;98.20;;;;;;5049179;28;20453;-79
2021/03/12 02:28:26;;;;;;;1.60;1.30;;;6.80;98.20;;;;;;5050769;28;20462;-79
2021/03/12 02:30:54;;;;;;;1.60;1.30;;;6.80;98.20;;;;;;5041612;28;20463;-78
2021/03/12 02:33:22;;;;;;;1.57;1.30;;;6.80;98.20;;;;;;5056328;28;20983;-78
2021/03/12 02:35:53;;;;;;;1.60;1.40;;;6.80;98.20;;;;;;5043771;28;21023;-78
2021/03/12 02:38:23;;;;;;;1.60;1.40;;;6.80;98.20;;;;;;5067369;28;20458;-79
2021/03/12 02:40:50;;;;;;;1.60;1.47;;;6.80;98.20;;;;;;5048960;28;20957;-78
2021/03/12 02:43:18;;;;;;;1.60;1.20;;;6.80;98.20;;;;;;5062382;28;20999;-78
2021/03/12 02:45:46;;;;;;;1.53;1.30;;;6.80;98.20;;;;;;5047710;28;20957;-77
2021/03/12 02:48:12;;;;;;;1.60;1.30;;;6.80;98.20;;;;;;5016249;28;20530;-79
2021/03/12 02:50:39;;;;;;;1.53;1.30;;;6.80;98.20;;;;;;5062523;28;20457;-78
2021/03/12 02:53:06;;;;;;;1.53;1.30;;;6.80;98.20;;;;;;5042937;28;20478;-78
2021/03/12 02:55:34;;;;;;;1.60;1.20;;;6.80;98.20;;;;;;5034469;28;20495;-78
2021/03/12 02:58:01;;;;;;;1.53;1.23;;;6.80;98.20;;;;;;5040523;28;20620;-79
2021/03/12 03:00:27;;;;;;;1.60;1.30;;;6.80;98.20;;;;;;5054164;28;20497;-78
2021/03/12 03:02:55;;;;;;;1.60;1.40;;;6.80;98.20;;;;;;5071770;28;20488;-78
2021/03/12 03:05:22;;;;;;;1.60;1.40;;;6.80;98.20;;;;;;5055955;28;20458;-78
2021/03/12 03:07:50;;;;;;;1.53;1.20;;;6.80;98.20;;;;;;5050797;28;20519;-78
2021/03/12 03:10:21;;;;;;;1.60;1.40;;;6.80;98.20;;;;;;5069599;28;20510;-78
2021/03/12 03:12:51;;;;;;;1.60;1.20;;;6.80;98.20;;;;;;5067339;28;20492;-79
2021/03/12 03:15:21;;;;;;;1.60;1.30;;;6.80;98.20;;;;;;5041155;28;20482;-79
2021/03/12 03:17:50;;;;;;;1.60;1.30;;;6.80;98.20;;;;;;5050032;28;20916;-78
2021/03/12 03:20:18;;;;;;;1.57;1.30;;;6.80;98.20;;;;;;5063315;28;20449;-79
2021/03/12 03:22:46;;;;;;;1.60;1.33;;;6.80;98.20;;;;;;5060170;28;20481;-78
2021/03/12 03:25:14;;;;;;;1.60;1.30;;;6.80;98.20;;;;;;5053143;28;20921;-79
2021/03/12 03:27:41;;;;;;;1.57;1.30;;;6.80;98.20;;;;;;5047155;28;20481;-79
2021/03/12 03:30:09;;;;;;;1.57;1.30;;;6.80;98.20;;;;;;5064767;28;20496;-78
2021/03/12 03:32:36;;;;;;;1.60;1.37;;;6.80;98.20;;;;;;5046069;28;20477;-79
2021/03/12 03:35:04;;;;;;;1.60;1.30;;;6.80;98.20;;;;;;5056266;28;21036;-80
2021/03/12 03:37:32;;;;;;;1.60;1.40;;;6.80;98.20;;;;;;5060670;28;20485;-78
2021/03/12 03:39:59;;;;;;;1.57;1.20;;;6.80;98.20;;;;;;5055664;28;20906;-79
2021/03/12 03:42:28;;;;;;;1.60;1.30;;;6.80;98.20;;;;;;5059037;28;20488;-78
2021/03/12 03:44:57;;;;;;;1.50;1.20;;;6.80;98.20;;;;;;5073739;28;20512;-78
2021/03/12 03:47:26;;;;;;;1.53;1.30;;;6.90;98.20;;;;;;5047078;28;20726;-80
2021/03/12 03:49:55;;;;;;;1.60;1.30;;;6.90;98.20;;;;;;5073574;28;21066;-79
2021/03/12 03:52:26;;;;;;;1.60;1.20;;;6.90;98.20;;;;;;5048879;28;20493;-78
2021/03/12 03:54:56;;;;;;;1.57;1.30;;;6.90;98.20;;;;;;5051974;28;20542;-78
2021/03/12 03:57:23;;;;;;;1.60;1.30;;;6.90;98.20;;;;;;5053313;28;20482;-78
2021/03/12 03:59:50;;;;;;;1.50;1.20;;;6.90;98.20;;;;;;5059448;28;20457;-78
2021/03/12 04:02:18;;;;;;;1.53;1.27;;;6.90;98.20;;;;;;5057581;28;20484;-78
2021/03/12 04:04:47;;;;;;;1.60;1.30;;;6.90;98.20;;;;;;5072002;28;20461;-78
2021/03/12 04:07:14;;;;;;;1.53;1.20;;;6.90;98.20;;;;;;5042995;28;20487;-78
2021/03/12 04:09:41;;;;;;;1.57;1.30;;;6.90;98.20;;;;;;5067919;28;20964;-77
2021/03/12 04:12:13;;;;;;;1.60;1.40;;;6.90;98.20;;;;;;5056210;28;20509;-78
2021/03/12 04:14:42;;;;;;;1.57;1.20;;;6.90;98.20;;;;;;5061985;28;20447;-78
2021/03/12 04:17:10;;;;;;;1.60;1.20;;;6.90;98.20;;;;;;5047038;28;20550;-78
2021/03/12 04:19:37;;;;;;;1.60;1.20;;;6.90;98.20;;;;;;5057164;28;20461;-78
2021/03/12 04:22:06;;;;;;;1.60;1.30;;;6.90;98.20;;;;;;5059254;28;20484;-79
2021/03/12 04:24:33;;;;;;;1.50;1.20;;;6.80;98.20;;;;;;5053837;28;20616;-78
2021/03/12 04:27:00;;;;;;;1.60;1.30;;;6.80;98.20;;;;;;5047816;28;20486;-78
2021/03/12 04:29:28;;;;;;;1.60;1.30;;;6.80;98.20;;;;;;5060765;28;20468;-79
2021/03/12 04:31:55;;;;;;;1.57;1.20;;;6.80;98.20;;;;;;5050462;28;20523;-78
2021/03/12 04:34:22;;;;;;;1.60;1.30;;;6.80;98.20;;;;;;5049376;28;20470;-79
2021/03/12 04:36:48;;;;;;;1.50;1.20;;;6.80;98.20;;;;;;5042965;28;20489;-79
2021/03/12 04:39:18;;;;;;;1.60;1.20;;;6.70;98.20;;;;;;5055221;28;20454;-78
2021/03/12 04:41:45;;;;;;;1.60;1.30;;;6.70;98.20;;;;;;5048882;28;20523;-78
2021/03/12 04:44:12;;;;;;;1.60;1.20;;;6.70;98.20;;;;;;5053879;28;20461;-78
2021/03/12 04:46:40;;;;;;;1.57;1.30;;;6.70;98.20;;;;;;5051392;28;20473;-79
2021/03/12 04:49:08;;;;;;;1.57;1.20;;;6.70;98.20;;;;;;5064666;28;20474;-77
2021/03/12 04:51:35;;;;;;;1.53;1.30;;;6.60;98.20;;;;;;5035938;28;20550;-79
2021/03/12 04:54:05;;;;;;;1.60;1.30;;;6.60;98.20;;;;;;5070951;28;20460;-79
2021/03/12 04:56:32;;;;;;;1.57;1.30;;;6.50;98.20;;;;;;5055458;28;20499;-79
2021/03/12 04:58:58;;;;;;;1.60;1.30;;;6.50;98.20;;;;;;5061246;28;20497;-79
2021/03/12 05:01:24;;;;;;;1.53;1.30;;;6.40;98.20;;;;;;5047811;28;20482;-79
2021/03/12 05:03:52;;;;;;;1.60;1.30;;;6.40;98.20;;;;;;5067139;28;20461;-79
2021/03/12 05:06:18;;;;;;;1.60;1.40;;;6.40;98.20;;;;;;5048901;28;20992;-79
2021/03/12 05:08:45;;;;;;;1.60;1.27;;;6.50;98.20;;;;;;5052201;28;20467;-79
2021/03/12 05:11:12;;;;;;;1.60;1.43;;;6.50;98.20;;;;;;5041117;28;20896;-78
2021/03/12 05:13:38;;;;;;;1.60;1.30;;;6.50;98.20;;;;;;5059495;28;20462;-79
2021/03/12 05:16:05;;;;;;;1.60;1.20;;;6.50;98.20;;;;;;5040161;28;20544;-78
2021/03/12 05:18:32;;;;;;;1.60;1.40;;;6.50;98.20;;;;;;5064342;28;20465;-79
2021/03/12 05:20:59;;;;;;;1.60;1.30;;;6.50;98.20;;;;;;5034270;28;20634;-78
2021/03/12 05:23:25;;;;;;;1.60;1.30;;;6.40;98.20;;;;;;5060547;28;20598;-80
2021/03/12 05:25:52;;;;;;;1.60;1.23;;;6.40;98.20;;;;;;5041488;28;20463;-78
2021/03/12 05:28:19;;;;;;;1.60;1.30;;;6.40;98.20;;;;;;5052484;28;20457;-79
2021/03/12 05:30:45;;;;;;;1.60;1.30;;;6.50;98.20;;;;;;5045020;28;20535;-79
2021/03/12 05:33:11;;;;;;;1.57;1.20;;;6.50;98.20;;;;;;5071256;28;20482;-79
2021/03/12 05:35:38;;;;;;;1.60;1.40;;;6.50;98.20;;;;;;5047453;28;20482;-79
2021/03/12 05:38:05;;;;;;;1.53;1.20;;;6.50;98.20;;;;;;5038640;28;20547;-78
2021/03/12 05:40:32;;;;;;;1.53;1.27;;;6.50;98.20;;;;;;5049833;28;20467;-78
2021/03/12 05:43:00;;;;;;;1.60;1.30;;;6.50;98.20;;;;;;5053992;28;20977;-78
2021/03/12 05:45:28;;;;;;;1.60;1.30;;;6.50;98.20;;;;;;5052339;28;20483;-79
2021/03/12 05:47:56;;;;;;;1.60;1.30;;;6.40;98.20;;;;;;5054775;28;20493;-78
2021/03/12 05:50:23;;;;;;;1.57;1.20;;;6.40;98.20;;;;;;5047367;28;20527;-78
2021/03/12 05:52:49;;;;;;;1.53;1.30;;;6.40;98.20;;;;;;5051004;28;20488;-78
2021/03/12 05:55:18;;;;;;;1.60;1.50;;;6.40;98.20;;;;;;5055218;28;20525;-78
2021/03/12 05:57:46;;;;;;;1.53;1.27;;;6.30;98.20;;;;;;5052030;28;21218;-80
2021/03/12 06:00:14;;;;;;;1.60;1.30;;;6.30;98.20;;;;;;5057057;28;20467;-80
2021/03/12 06:02:41;;;;;;;1.60;1.30;;;6.30;98.20;;;;;;5058786;28;20493;-80
2021/03/12 06:05:10;;;;;;;1.60;1.20;;;6.30;98.20;;;;;;5056951;28;20485;-80
2021/03/12 06:07:37;;;;;;;1.60;1.30;;;6.40;98.20;;;;;;5053438;28;20561;-79
2021/03/12 06:10:05;;;;;;;1.60;1.40;;;6.40;98.20;;;;;;5057092;28;20550;-79
2021/03/12 06:12:33;;;;;;;1.60;1.30;;;6.40;98.20;;;;;;5046529;28;20486;-79
2021/03/12 06:15:01;;;;;;;1.60;1.30;;;6.50;98.20;;;;;;5053849;28;20455;-80
2021/03/12 06:17:31;;;;;;;1.60;1.30;;;6.50;98.20;;;;;;5063467;28;20500;-79
2021/03/12 06:19:58;;;;;;;1.50;1.20;;;6.50;98.20;;;;;;5063077;28;20460;-80
2021/03/12 06:22:24;;;;;;;1.60;1.30;;;6.50;98.20;;;;;;5053563;28;21123;-80
2021/03/12 06:24:51;;;;;;;1.53;1.20;;;6.50;98.20;;;;;;5056881;28;20819;-79
2021/03/12 06:27:24;;;;;;;1.60;1.40;;;6.60;98.20;;;;;;5045845;28;20479;-79
2021/03/12 06:29:58;;;;;;;1.60;1.30;;;6.60;98.20;;;;;;5050537;28;20491;-80
2021/03/12 06:32:37;;;;;;;1.60;1.30;;;6.60;98.20;;;;;;5056641;28;20481;-80
2021/03/12 06:35:06;;;;;;;1.53;1.20;;;6.60;98.20;;;;;;5057835;28;20466;-79
2021/03/12 06:37:32;;;;;;;1.53;1.30;;;6.60;98.20;;;;;;5061022;28;20474;-79
2021/03/12 06:40:00;;;;;;;1.57;1.30;;;6.60;98.20;;;;;;5056941;28;20541;-80
2021/03/12 06:42:26;;;;;;;1.60;1.30;;;6.60;98.20;;;;;;5058510;28;20499;-80
2021/03/12 06:44:53;;;;;;;1.60;1.30;;;6.70;98.20;;;;;;5053224;28;20615;-79
2021/03/12 06:47:21;;;;;;;1.60;1.20;;;6.70;98.20;;;;;;5054686;28;20862;-80
2021/03/12 06:49:55;;;;;;;1.60;1.40;;;6.70;98.20;;;;;;5057558;28;20792;-79
2021/03/12 06:52:32;;;;;;;1.53;1.30;;;6.70;98.20;;;;;;5055880;28;20956;-78
2021/03/12 06:54:59;;;;;;;1.60;1.50;;;6.80;98.20;;;;;;5059270;28;20570;-79
2021/03/12 06:57:25;;;;;;;1.57;1.20;;;6.80;98.20;;;;;;5062251;28;20489;-78
2021/03/12 06:59:59;;;;;;;1.60;1.20;;;6.80;98.20;;;;;;5061578;28;20466;-77
2021/03/12 07:02:30;;;;;;;1.57;1.20;;;6.90;98.20;;;;;;5054561;28;20497;-78
2021/03/12 07:04:56;;;;;;;1.57;1.20;;;6.90;98.20;;;;;;5058239;28;20458;-78
2021/03/12 07:07:38;;;;;;;1.60;1.30;;;7.00;98.20;;;;;;5054210;28;21035;-79
2021/03/12 07:10:07;;;;;;;1.57;1.20;;;7.00;98.20;;;;;;5052427;28;20970;-79
2021/03/12 07:12:50;;;;;;;1.53;1.20;;;7.10;98.20;;;;;;5059574;28;20473;-78
2021/03/12 07:15:18;;;;;;;1.60;1.30;;;7.10;98.10;;;;;;5054818;28;20469;-77
2021/03/12 07:17:45;;;;;;;1.60;1.40;;;7.20;98.20;;;;;;5062309;28;21048;-78
2021/03/12 07:20:14;;;;;;;1.53;1.30;;;7.20;97.80;;;;;;5056594;28;20469;-78
2021/03/12 07:22:45;;;;;;;1.60;1.30;;;7.30;98.00;;;;;;5049067;28;20486;-79
2021/03/12 07:25:12;;;;;;;1.53;1.20;;;7.40;97.40;;;;;;5058759;28;20472;-78
2021/03/12 07:27:41;;;;;;;1.57;1.27;;;7.40;97.30;;;;;;5060333;28;21017;-77
2021/03/12 07:30:10;;;;;;;1.57;1.30;;;7.50;97.20;;;;;;5053997;28;20475;-78
2021/03/12 07:32:38;;;;;;;1.60;1.37;;;7.60;97.40;;;;;;5052211;28;20498;-79
2021/03/12 07:35:06;;;;;;;1.57;1.20;;;7.60;96.70;;;;;;5057496;28;20458;-78
2021/03/12 07:37:35;;;;;;;1.50;1.20;;;7.70;96.80;;;;;;5051491;28;20489;-78
2021/03/12 07:40:04;;;;;;;2.73;2.53;;;7.80;96.30;;;;;;5062203;28;20469;-80
2021/03/12 07:42:30;;;;;;;1.53;1.30;;;7.90;96.10;;;;;;5045230;28;20482;-78
2021/03/12 07:44:57;;;;;;;1.60;1.20;;;7.90;96.00;;;;;;5057950;28;20493;-77
2021/03/12 07:47:26;;;;;;;1.50;1.20;;;8.00;96.10;;;;;;5055895;28;20481;-78
2021/03/12 07:49:54;;;;;;;1.60;1.17;;;8.10;95.40;;;;;;5070167;28;20459;-77
2021/03/12 07:52:48;;;;;;;1.60;1.30;;;8.20;95.00;;;;;;5056626;28;20489;-77
2021/03/12 07:56:00;;;;;;;1.50;1.10;;;8.30;94.50;;;;;;5050309;28;20577;-78
2021/03/12 07:58:49;;;;;;;1.50;1.10;;;8.50;94.00;;;;;;5027626;28;20469;-78
2021/03/12 08:01:16;;;;;;;1.50;1.03;;;8.60;93.50;;;;;;5045048;28;20527;-78
2021/03/12 08:03:43;;;;;;;1.57;1.20;;;8.60;93.30;;;;;;5061010;28;20470;-78
2021/03/12 08:06:29;;;;;;;1.60;1.20;;;8.70;92.80;;;;;;5040888;28;20521;-78
2021/03/12 08:08:55;;;;;;;1.57;1.17;;;8.70;92.70;;;;;;5057082;28;20465;-76
2021/03/12 08:11:24;;;;;;;1.60;1.17;;;8.70;92.30;;;;;;5041606;28;20484;-78
2021/03/12 08:13:51;;;;;;;1.60;1.20;;;8.80;92.20;;;;;;5059040;28;20462;-79
2021/03/12 08:16:17;;;;;;;1.57;1.10;;;8.80;92.50;;;;;;5042116;28;20547;-76
2021/03/12 08:18:44;;;;;;;1.60;1.30;;;8.80;92.20;;;;;;5064335;28;20462;-77
2021/03/12 08:21:33;;;;;;;1.57;1.10;;;8.80;92.50;;;;;;5041939;28;20478;-77
2021/03/12 08:24:00;;;;;;;1.57;1.10;;;8.90;92.40;;;;;;5048914;28;20562;-77
2021/03/12 08:26:49;;;;;;;1.57;1.10;;;8.90;92.20;;;;;;5041929;28;21048;-76
2021/03/12 08:29:36;;;;;;;1.53;1.10;;;8.80;92.20;;;;;;5051105;28;20471;-76
2021/03/12 08:32:24;;;;;;;1.57;1.10;;;8.80;92.30;;;;;;5045536;28;20492;-77
2021/03/12 08:34:51;;;;;;;1.60;1.30;;;8.80;92.50;;;;;;5049230;28;20541;-76
2021/03/12 08:37:42;;;;;;;1.53;1.20;;;8.70;92.90;;;;;;5032698;28;20482;-77
2021/03/12 08:40:23;;;;;;;1.57;1.10;;;8.80;93.10;;;;;;5049592;28;20470;-77
2021/03/12 08:42:55;;;;;;;1.60;1.20;;;8.80;92.90;;;;;;5045641;28;20538;-76
2021/03/12 08:45:35;;;;;;;1.50;1.10;;;8.80;93.40;;;;;;5037208;28;20467;-77
2021/03/12 08:48:07;;;;;;;1.53;1.20;;;8.80;93.40;;;;;;5044188;28;20491;-77
2021/03/12 08:50:35;;;;;;;1.53;1.00;;;8.90;93.30;;;;;;5047294;28;20462;-77
2021/03/12 08:53:02;;;;;;;1.53;1.10;;;9.00;93.10;;;;;;5051620;28;20827;-78
2021/03/12 08:55:28;;;;;;;1.57;1.10;;;9.00;93.20;;;;;;5047700;28;20473;-76
2021/03/12 08:58:15;;;;;;;1.57;1.13;;;9.10;92.70;;;;;;5048520;28;21134;-77
2021/03/12 09:00:42;;;;;;;1.53;1.10;;;9.10;92.70;;;;;;5047219;28;20839;-77
2021/03/12 09:03:17;;;;;;;1.60;1.10;;;9.10;92.70;;;;;;5038324;28;20520;-77
2021/03/12 09:05:45;;;;;;;1.60;1.10;;;9.20;92.90;;;;;;5049736;28;20469;-76
2021/03/12 09:08:13;;;;;;;1.57;1.20;;;9.20;92.60;;;;;;5053187;28;20507;-77
2021/03/12 09:10:40;;;;;;;1.57;1.20;;;9.20;92.40;;;;;;5043098;28;20554;-77
2021/03/12 09:13:13;;;;;;;1.50;1.10;;;9.30;92.60;;;;;;5049880;28;20486;-76
2021/03/12 09:15:40;;;;;;;1.57;1.10;;;9.30;92.90;;;;;;5047864;28;20509;-77
2021/03/12 09:18:06;;;;;;;1.50;1.00;;;9.40;92.30;;;;;;5051528;28;20492;-78
2021/03/12 09:20:33;;;;;;;1.50;1.10;;;9.40;91.30;;;;;;5051921;28;20466;-76
2021/03/12 09:23:00;;;;;;;1.57;1.10;;;9.30;91.80;;;;;;5049407;28;20489;-76
2021/03/12 09:25:28;;;;;;;1.60;1.10;;;9.40;92.00;;;;;;5047719;28;20810;-76
2021/03/12 09:27:59;;;;;;;1.53;1.10;;;9.40;92.20;;;;;;5044167;28;20555;-76
2021/03/12 09:30:27;;;;;;;1.50;1.10;;;9.40;91.20;;;;;;5048301;28;20553;-80
2021/03/12 09:32:54;;;;;;;1.57;1.10;;;9.40;91.00;;;;;;5052214;28;20497;-77
2021/03/12 09:35:21;;;;;;;1.57;1.20;;;9.50;90.90;;;;;;5060053;28;20462;-78
2021/03/12 09:37:47;;;;;;;1.60;1.20;;;9.60;91.10;;;;;;5055045;28;20496;-76
2021/03/12 09:40:30;;;;;;;1.53;1.10;;;9.70;90.20;;;;;;5052201;28;20466;-77
2021/03/12 09:42:57;;;;;;;1.60;1.10;;;9.80;89.90;;;;;;5051114;28;20478;-78
2021/03/12 09:45:25;;;;;;;1.53;1.10;;;10.00;89.40;;;;;;5056212;28;20571;-75
2021/03/12 09:47:53;;;;;;;1.53;1.07;;;10.20;88.60;;;;;;5055126;28;20482;-78
2021/03/12 09:50:23;;;;;;;1.57;1.10;;;10.40;87.60;;;;;;5049283;28;20463;-76
2021/03/12 09:52:51;;;;;;;1.60;1.10;;;10.50;87.10;;;;;;5056815;28;20481;-77
2021/03/12 09:55:18;;;;;;;1.53;1.10;;;10.60;87.10;;;;;;5050615;28;20475;-79
2021/03/12 09:57:45;;;;;;;1.50;1.07;;;10.60;85.70;;;;;;5052822;28;20491;-77
2021/03/12 10:00:21;;;;;;;1.53;1.00;;;10.60;86.20;;;;;;5060759;28;20569;-77
2021/03/12 10:02:54;;;;;;;1.57;1.10;;;10.60;86.10;;;;;;5056623;28;20547;-76
2021/03/12 10:05:20;;;;;;;1.57;1.00;;;10.60;86.10;;;;;;5053956;28;20458;-77
2021/03/12 10:07:48;;;;;;;1.60;1.10;;;10.60;86.20;;;;;;5055154;28;20476;-76
2021/03/12 10:10:20;;;;;;;1.50;1.10;;;10.60;85.50;;;;;;5048940;28;20459;-76
2021/03/12 10:12:49;;;;;;;1.60;1.10;;;10.50;85.30;;;;;;5054977;28;20496;-77
2021/03/12 10:15:17;;;;;;;1.50;1.00;;;10.40;85.70;;;;;;5046096;28;20474;-76
2021/03/12 10:17:44;;;;;;;1.57;1.10;;;10.40;86.00;;;;;;5050670;28;20884;-77
2021/03/12 10:20:25;;;;;;;1.60;1.20;;;10.40;85.90;;;;;;5055762;28;20522;-77
2021/03/12 10:22:54;;;;;;;1.50;1.10;;;10.30;85.30;;;;;;5052492;28;20519;-77
2021/03/12 10:25:21;;;;;;;1.50;1.00;;;10.40;85.70;;;;;;5053725;28;20466;-78
2021/03/12 10:27:50;;;;;;;1.50;1.00;;;10.40;85.40;;;;;;5056331;28;20478;-75
2021/03/12 10:30:19;;;;;;;1.60;1.20;;;10.50;85.20;;;;;;5054955;28;21029;-76
2021/03/12 10:32:47;;;;;;;1.57;1.00;;;10.50;85.10;;;;;;5039535;28;20537;-78
2021/03/12 10:35:23;;;;;;;1.57;1.10;;;10.70;84.50;;;;;;5048789;28;20844;-77
2021/03/12 10:37:51;;;;;;;1.50;1.00;;;10.70;83.70;;;;;;5056575;28;20485;-76
2021/03/12 10:40:18;;;;;;;1.57;1.10;;;10.80;83.40;;;;;;5052867;28;20462;-77
2021/03/12 10:42:45;;;;;;;1.60;1.10;;;10.80;83.10;;;;;;5041601;28;20695;-78
2021/03/12 10:45:22;;;;;;;1.57;1.10;;;10.90;83.20;;;;;;5053328;28;20757;-76
2021/03/12 10:48:03;;;;;;;1.57;1.10;;;10.90;82.90;;;;;;5049239;28;20478;-77
2021/03/12 10:50:32;;;;;;;1.60;1.10;;;10.80;81.90;;;;;;5056458;28;21000;-78
2021/03/12 10:53:16;;;;;;;1.53;1.10;;;10.70;81.80;;;;;;5053727;28;20482;-75
2021/03/12 10:55:45;;;;;;;1.50;1.03;;;10.60;82.30;;;;;;5043815;28;20462;-76
2021/03/12 10:58:22;;;;;;;1.53;1.10;;;10.60;82.50;;;;;;5024820;28;20475;-76
2021/03/12 11:01:07;;;;;;;1.53;1.07;;;10.60;82.90;;;;;;5041154;28;20467;-77
2021/03/12 11:03:34;;;;;;;1.60;1.10;;;10.60;82.80;;;;;;5054888;28;20466;-76
2021/03/12 11:06:01;;;;;;;1.57;1.10;;;10.60;82.70;;;;;;5039660;28;20613;-77
2021/03/12 11:08:27;;;;;;;1.60;1.13;;;10.60;83.40;;;;;;5066688;28;20516;-78
2021/03/12 11:10:54;;;;;;;1.53;1.00;;;10.70;83.40;;;;;;5042413;28;20467;-77
2021/03/12 11:13:20;;;;;;;1.60;1.13;;;10.70;82.90;;;;;;5065316;28;20493;-77
2021/03/12 11:15:47;;;;;;;1.60;1.23;;;10.70;82.90;;;;;;5048014;28;20505;-76
2021/03/12 11:18:14;;;;;;;1.57;1.03;;;10.80;83.30;;;;;;5055974;28;20978;-76
2021/03/12 11:20:41;;;;;;;1.50;1.10;;;11.00;81.60;;;;;;5054689;28;20536;-78
2021/03/12 11:23:08;;;;;;;1.50;1.10;;;11.20;82.00;;;;;;5059330;28;20481;-76
2021/03/12 11:25:34;;;;;;;1.57;1.00;;;11.50;81.60;;;;;;5050742;28;20489;-78
2021/03/12 11:28:02;;;;;;;1.57;1.10;;;11.60;81.00;;;;;;5041620;28;20474;-77
2021/03/12 11:30:29;;;;;;;1.50;1.10;;;11.70;80.80;;;;;;5056518;28;20469;-77
2021/03/12 11:32:55;;;;;;;1.53;1.00;;;11.80;80.20;;;;;;5057885;28;20619;-79
2021/03/12 11:35:23;;;;;;;7.90;7.13;;;11.80;79.80;;;;;;5054759;28;20459;-78
2021/03/12 11:37:50;;;;;;;1.57;1.00;;;11.80;80.10;;;;;;5060818;28;20481;-78
2021/03/12 11:40:19;;;;;;;1.50;1.00;;;11.70;79.60;;;;;;5052701;28;20545;-78
2021/03/12 11:42:45;;;;;;;1.50;1.00;;;11.70;79.40;;;;;;5055708;28;20926;-79
2021/03/12 11:45:14;;;;;;;1.50;1.00;;;11.80;79.70;;;;;;5051875;28;20493;-78
2021/03/12 11:47:41;;;;;;;1.50;1.03;;;11.90;79.20;;;;;;5054110;28;20554;-77
2021/03/12 11:50:10;;;;;;;1.53;1.00;;;12.00;79.10;;;;;;5055333;28;20508;-78
2021/03/12 11:52:37;;;;;;;1.53;1.00;;;12.20;78.30;;;;;;5059964;28;20493;-77
2021/03/12 11:55:06;;;;;;;1.60;1.00;;;12.40;77.40;;;;;;5055599;28;20964;-78
2021/03/12 11:57:34;;;;;;;1.50;1.00;;;12.60;77.30;;;;;;5051466;28;20485;-76
2021/03/12 12:00:01;;;;;;;1.60;1.00;;;12.70;76.40;;;;;;5049171;28;20493;-77
2021/03/12 12:02:27;;;;;;;1.57;1.00;;;12.90;77.10;;;;;;5051597;28;20548;-78
2021/03/12 12:04:54;;;;;;;1.57;1.00;;;13.00;76.50;;;;;;5053791;28;20478;-78
2021/03/12 12:07:20;;;;;;;1.60;1.00;;;12.90;75.30;;;;;;5052501;28;20516;-77
2021/03/12 12:09:47;;;;;;;1.57;1.00;;;12.70;75.60;;;;;;5054673;28;20502;-77
2021/03/12 12:12:14;;;;;;;1.57;1.00;;;12.60;76.20;;;;;;5051149;28;20515;-77
2021/03/12 12:14:41;;;;;;;1.50;0.90;;;12.60;76.50;;;;;;5057349;28;20577;-78
2021/03/12 12:17:08;;;;;;;1.57;1.00;;;12.50;76.10;;;;;;5042029;28;20487;-77
2021/03/12 12:19:35;;;;;;;1.50;1.00;;;12.40;76.50;;;;;;5052236;28;20471;-76
2021/03/12 12:22:01;;;;;;;1.60;1.10;;;12.40;77.40;;;;;;5039538;28;20485;-77
2021/03/12 12:24:28;;;;;;;1.50;1.00;;;12.40;76.30;;;;;;5049933;28;20478;-77
2021/03/12 12:27:02;;;;;;;1.60;1.00;;;12.30;76.50;;;;;;5047332;28;20622;-77
2021/03/12 12:29:29;;;;;;;1.57;1.00;;;12.20;76.20;;;;;;5052108;28;20551;-77
2021/03/12 12:31:55;;;;;;;1.60;1.00;;;12.10;76.60;;;;;;5031130;28;20478;-78
2021/03/12 12:34:22;;;;;;;1.50;1.00;;;12.00;75.60;;;;;;5047272;28;20505;-78
2021/03/12 12:36:49;;;;;;;1.53;1.00;;;11.90;76.30;;;;;;5046765;28;20508;-77
2021/03/12 12:39:16;;;;;;;1.53;1.03;;;11.90;76.50;;;;;;5063205;28;20462;-78
2021/03/12 12:41:45;;;;;;;1.50;1.00;;;12.00;77.60;;;;;;5052740;28;20567;-77
2021/03/12 12:44:12;;;;;;;1.50;1.00;;;12.10;77.60;;;;;;5060715;28;20553;-77
2021/03/12 12:46:39;;;;;;;1.50;1.00;;;12.30;77.50;;;;;;5040250;28;21095;-77
2021/03/12 12:49:06;;;;;;;1.50;1.00;;;12.50;77.70;;;;;;5053727;28;20470;-78
2021/03/12 12:51:32;;;;;;;1.60;1.10;;;12.80;77.70;;;;;;5039192;28;20485;-77
2021/03/12 12:53:58;;;;;;;1.60;1.10;;;13.00;76.40;;;;;;5054626;28;20509;-77
2021/03/12 12:56:25;;;;;;;1.60;1.10;;;13.00;76.40;;;;;;5042920;28;20482;-77
2021/03/12 12:58:52;;;;;;;1.50;1.00;;;12.80;76.20;;;;;;5048715;28;20995;-76
2021/03/12 13:01:21;;;;;;;1.57;1.00;;;12.70;77.10;;;;;;5037508;28;21010;-77
2021/03/12 13:03:48;;;;;;;1.50;1.00;;;12.60;76.80;;;;;;5061590;28;20611;-77